Time;durP1;ratioP1;P1;durP2;ratioP2;P2;SDS_P1;SDS_P2;PMS_P1;PMS_P2;Temp;Humidity;BMP_temperature;BMP_pressure;BME280_temperature;BME280_humidity;BME280_pressure;Samples;Min_cycle;Max_cycle;Signal;HPM_P1;HPM_P2
2022/08/17 00:01:06;;;;;;;5.53;5.03;;;;;;;14.06;100.00;100392.72;5014474;28;20821;-51
2022/08/17 00:03:37;;;;;;;5.35;4.88;;;;;;;14.03;100.00;100390.50;5018642;28;20104;-52
2022/08/17 00:06:18;;;;;;;9.23;5.93;;;;;;;13.96;100.00;100390.56;5012623;28;20029;-48
2022/08/17 00:08:56;;;;;;;6.65;5.72;;;;;;;13.88;100.00;100382.81;5025851;28;20382;-53
2022/08/17 00:11:28;;;;;;;6.65;6.00;;;;;;;13.81;100.00;100381.22;5021875;28;20037;-51
2022/08/17 00:13:57;;;;;;;6.72;6.05;;;;;;;13.76;100.00;100381.88;5029090;28;20068;-50
2022/08/17 00:16:34;;;;;;;5.50;4.78;;;;;;;13.72;100.00;100380.66;5022201;28;20443;-49
2022/08/17 00:19:03;;;;;;;7.15;5.75;;;;;;;13.74;100.00;100387.41;5027884;28;20025;-49
2022/08/17 00:21:29;;;;;;;8.88;6.25;;;;;;;13.81;100.00;100384.72;5020376;28;20053;-49
2022/08/17 00:23:54;;;;;;;6.53;5.93;;;;;;;13.85;100.00;100379.75;5015627;28;20519;-49
2022/08/17 00:26:21;;;;;;;7.53;6.57;;;;;;;13.81;100.00;100376.72;5012143;28;20121;-52
2022/08/17 00:28:47;;;;;;;7.15;5.68;;;;;;;13.82;100.00;100382.84;5017400;28;20394;-49
2022/08/17 00:31:13;;;;;;;8.50;7.60;;;;;;;13.80;100.00;100374.25;5025358;28;20040;-50
2022/08/17 00:33:44;;;;;;;8.38;6.80;;;;;;;13.76;100.00;100373.88;5013917;28;20161;-49
2022/08/17 00:36:11;;;;;;;9.55;7.40;;;;;;;13.72;100.00;100380.66;5026573;28;20038;-51
2022/08/17 00:38:37;;;;;;;7.75;6.50;;;;;;;13.72;100.00;100373.47;5024351;28;20479;-49
2022/08/17 00:41:13;;;;;;;9.50;7.13;;;;;;;13.65;100.00;100363.88;5026756;28;20028;-54
2022/08/17 00:43:45;;;;;;;7.97;7.13;;;;;;;13.58;100.00;100363.94;5031480;28;20390;-49
2022/08/17 00:46:17;;;;;;;10.57;7.68;;;;;;;13.50;100.00;100364.16;5035890;28;20021;-54
2022/08/17 00:48:43;;;;;;;8.75;6.35;;;;;;;13.44;100.00;100370.34;5033010;28;20161;-53
2022/08/17 00:51:31;;;;;;;7.75;6.82;;;;;;;13.40;100.00;100363.78;5031347;28;20140;-55
2022/08/17 00:54:10;;;;;;;9.05;6.93;;;;;;;13.38;100.00;100368.53;5028232;28;20029;-56
2022/08/17 00:56:40;;;;;;;8.70;6.45;;;;;;;13.31;100.00;100361.38;5023928;28;20102;-56
2022/08/17 00:59:07;;;;;;;7.30;6.60;;;;;;;13.28;100.00;100361.81;5029122;28;20060;-53
2022/08/17 01:01:33;;;;;;;9.02;7.68;;;;;;;13.27;100.00;100359.38;5033756;28;20032;-54
2022/08/17 01:04:00;;;;;;;9.63;7.85;;;;;;;13.25;100.00;100356.06;5026859;28;20097;-55
2022/08/17 01:06:27;;;;;;;9.73;8.73;;;;;;;13.24;100.00;100360.59;5026432;28;20558;-55
2022/08/17 01:08:56;;;;;;;10.38;7.70;;;;;;;13.27;100.00;100360.19;5024582;28;20112;-52
2022/08/17 01:11:21;;;;;;;15.80;8.35;;;;;;;13.24;100.00;100360.59;5033021;28;20041;-52
2022/08/17 01:13:47;;;;;;;11.07;9.35;;;;;;;13.20;100.00;100359.38;5026329;28;20119;-54
2022/08/17 01:16:28;;;;;;;11.40;7.20;;;;;;;13.20;100.00;100369.19;5020079;28;20454;-54
2022/08/17 01:18:58;;;;;;;9.32;8.07;;;;;;;13.17;100.00;100366.97;5019991;28;20053;-54
2022/08/17 01:21:51;;;;;;;10.07;8.70;;;;;;;13.23;100.00;100358.13;5022701;28;20100;-54
2022/08/17 01:24:16;;;;;;;11.32;8.98;;;;;;;13.31;100.00;100358.72;5017416;28;20041;-55
2022/08/17 01:26:43;;;;;;;14.15;9.75;;;;;;;13.38;100.00;100366.69;5031534;28;20025;-54
2022/08/17 01:29:10;;;;;;;12.05;9.23;;;;;;;13.42;100.00;100364.41;5026049;28;20110;-52
2022/08/17 01:31:40;;;;;;;11.20;9.65;;;;;;;13.52;100.00;100362.09;5022431;28;20462;-53
2022/08/17 01:34:09;;;;;;;13.52;11.18;;;;;;;13.62;100.00;100367.78;5024293;28;20187;-55
2022/08/17 01:36:36;;;;;;;13.45;10.82;;;;;;;13.76;100.00;100376.53;5026121;28;20390;-52
2022/08/17 01:39:08;;;;;;;14.65;10.85;;;;;;;13.90;100.00;100387.94;5029840;28;20107;-55
2022/08/17 01:41:35;;;;;;;12.23;10.18;;;;;;;13.98;100.00;100381.53;5024056;28;20060;-53
2022/08/17 01:44:04;;;;;;;16.05;13.18;;;;;;;14.08;100.00;100377.34;5026988;28;20033;-54
2022/08/17 01:46:34;;;;;;;16.58;12.50;;;;;;;14.17;100.00;100375.22;5018464;28;20111;-55
2022/08/17 01:49:00;;;;;;;16.90;12.88;;;;;;;14.25;100.00;100376.78;5025190;28;20022;-52
2022/08/17 01:51:31;;;;;;;15.40;12.18;;;;;;;14.35;100.00;100374.44;5029054;28;20036;-55
2022/08/17 01:54:01;;;;;;;17.65;12.82;;;;;;;14.43;100.00;100368.88;5017671;28;20041;-51
2022/08/17 01:56:28;;;;;;;18.65;14.55;;;;;;;14.56;100.00;100368.78;5023388;28;20560;-54
2022/08/17 01:58:55;;;;;;;27.63;19.27;;;;;;;14.65;100.00;100373.81;5023094;28;20332;-51
2022/08/17 02:01:25;;;;;;;19.38;16.13;;;;;;;14.77;100.00;100378.22;5028548;28;20025;-51
2022/08/17 02:03:51;;;;;;;21.90;16.45;;;;;;;14.86;100.00;100378.72;5023895;28;20487;-48
2022/08/17 02:06:16;;;;;;;20.13;15.55;;;;;;;14.93;100.00;100376.00;5017680;28;20162;-50
2022/08/17 02:08:41;;;;;;;25.98;18.83;;;;;;;14.96;100.00;100375.53;5025553;28;20112;-49
2022/08/17 02:11:13;;;;;;;22.83;17.08;;;;;;;15.04;100.00;100375.25;5026816;28;20391;-49
2022/08/17 02:13:38;;;;;;;23.58;17.83;;;;;;;15.05;100.00;100375.03;5022311;28;20470;-49
2022/08/17 02:16:04;;;;;;;23.77;17.52;;;;;;;15.11;100.00;100376.00;5027030;28;20049;-53
2022/08/17 02:18:29;;;;;;;24.67;16.50;;;;;;;15.16;100.00;100384.16;5023723;28;20034;-51
2022/08/17 02:20:55;;;;;;;27.77;20.33;;;;;;;15.17;100.00;100396.44;5019243;28;20079;-51
2022/08/17 02:23:23;;;;;;;19.05;16.08;;;;;;;15.18;100.00;100397.25;5027533;28;20021;-52
2022/08/17 02:25:49;;;;;;;27.15;19.65;;;;;;;15.22;100.00;100403.81;5013800;28;20026;-51
2022/08/17 02:28:16;;;;;;;27.13;18.52;;;;;;;15.24;100.00;100413.22;5027704;28;20060;-50
2022/08/17 02:30:43;;;;;;;26.30;18.10;;;;;;;15.27;100.00;100412.78;5027806;28;20032;-52
2022/08/17 02:33:08;;;;;;;30.92;19.95;;;;;;;15.29;100.00;100417.91;5024194;28;20029;-49
2022/08/17 02:35:35;;;;;;;31.15;18.35;;;;;;;15.33;100.00;100423.59;5024613;28;20033;-51
2022/08/17 02:38:04;;;;;;;29.38;20.60;;;;;;;15.35;100.00;100430.34;5027928;28;20353;-48
2022/08/17 02:40:31;;;;;;;27.38;19.45;;;;;;;15.38;100.00;100437.91;5026238;28;20406;-51
2022/08/17 02:42:56;;;;;;;30.15;20.48;;;;;;;15.42;100.00;100444.44;5028415;28;20033;-49
2022/08/17 02:45:23;;;;;;;26.70;18.70;;;;;;;15.47;100.00;100436.59;5020073;28;20336;-49
2022/08/17 02:47:49;;;;;;;26.17;19.17;;;;;;;15.48;100.00;100432.84;5026124;28;20160;-54
2022/08/17 02:50:19;;;;;;;30.20;19.90;;;;;;;15.51;100.00;100436.13;5022615;28;20046;-50
2022/08/17 02:52:45;;;;;;;24.20;18.15;;;;;;;15.52;100.00;100440.44;5017871;28;20033;-52
2022/08/17 02:55:13;;;;;;;30.13;21.90;;;;;;;15.52;100.00;100443.94;5021734;28;20572;-50
2022/08/17 02:57:38;;;;;;;33.08;23.73;;;;;;;15.54;100.00;100446.38;5023219;28;20032;-52
2022/08/17 03:00:09;;;;;;;35.78;23.95;;;;;;;15.56;100.00;100442.44;5027573;28;20029;-50
2022/08/17 03:02:39;;;;;;;35.45;25.50;;;;;;;15.59;100.00;100442.00;5016763;28;20038;-50
2022/08/17 03:05:10;;;;;;;36.20;24.63;;;;;;;15.62;100.00;100432.72;5013818;28;20108;-49
2022/08/17 03:07:37;;;;;;;30.48;22.45;;;;;;;15.63;100.00;100432.47;5018897;28;20025;-49
2022/08/17 03:10:04;;;;;;;35.10;23.98;;;;;;;15.65;100.00;100433.06;5021332;28;20117;-51
2022/08/17 03:12:32;;;;;;;35.85;24.33;;;;;;;15.66;100.00;100447.25;5022056;28;20133;-49
2022/08/17 03:15:02;;;;;;;34.28;22.83;;;;;;;15.69;100.00;100430.78;5020586;28;20110;-55
2022/08/17 03:17:28;;;;;;;39.15;25.67;;;;;;;15.72;100.00;100438.38;5024982;28;20025;-52
2022/08/17 03:19:53;;;;;;;36.08;24.48;;;;;;;15.74;100.00;100444.28;5025194;28;20136;-50
2022/08/17 03:22:19;;;;;;;36.47;24.92;;;;;;;15.76;100.00;100444.88;5027934;28;20059;-51
2022/08/17 03:24:44;;;;;;;33.00;24.48;;;;;;;15.78;100.00;100453.50;5015572;28;20037;-52
2022/08/17 03:27:09;;;;;;;39.85;26.33;;;;;;;15.81;100.00;100457.56;5027730;28;20068;-51
2022/08/17 03:29:34;;;;;;;37.20;26.17;;;;;;;15.84;100.00;100465.94;5022700;28;20140;-55
2022/08/17 03:32:09;;;;;;;35.33;23.00;;;;;;;15.84;100.00;100468.63;5022027;28;20525;-52
2022/08/17 03:34:35;;;;;;;31.85;24.30;;;;;;;15.86;100.00;100471.91;5023777;28;20037;-51
2022/08/17 03:37:00;;;;;;;35.70;25.48;;;;;;;15.88;100.00;100474.34;5021838;28;20048;-48
2022/08/17 03:39:25;;;;;;;34.05;24.95;;;;;;;15.89;100.00;100476.78;5012360;28;20466;-50
2022/08/17 03:41:50;;;;;;;39.35;27.30;;;;;;;15.88;100.00;100477.84;5022632;28;20029;-49
2022/08/17 03:44:16;;;;;;;32.22;22.67;;;;;;;15.86;100.00;100469.22;5022673;28;20041;-51
2022/08/17 03:57:37;;;;;;;36.72;23.33;;;;;;;15.87;100.00;100481.53;5020845;28;20371;-52
2022/08/17 04:00:03;;;;;;;34.85;23.77;;;;;;;15.88;100.00;100490.41;5015723;28;20018;-52
2022/08/17 04:02:32;;;;;;;33.80;24.23;;;;;;;15.87;100.00;100492.22;5018639;28;20034;-48
2022/08/17 04:04:58;;;;;;;36.05;24.05;;;;;;;15.86;100.00;100482.59;5025443;28;20026;-53
2022/08/17 04:07:27;;;;;;;35.38;24.75;;;;;;;15.85;100.00;100482.81;5024254;28;20092;-51
2022/08/17 04:09:52;;;;;;;35.08;24.83;;;;;;;15.85;100.00;100485.47;5019339;28;20037;-48
2022/08/17 04:12:21;;;;;;;35.28;24.02;;;;;;;15.84;100.00;100481.19;5014213;28;20041;-49
2022/08/17 04:14:46;;;;;;;43.67;28.90;;;;;;;15.84;100.00;100484.66;5023059;28;20110;-54
2022/08/17 04:17:12;;;;;;;40.97;26.70;;;;;;;15.85;100.00;100493.50;5021208;28;20033;-50
2022/08/17 04:19:37;;;;;;;31.55;22.65;;;;;;;15.86;100.00;100485.25;5025911;28;20392;-49
2022/08/17 04:22:04;;;;;;;27.67;19.30;;;;;;;15.87;100.00;100481.53;5020127;28;20026;-48
2022/08/17 04:24:30;;;;;;;35.28;23.90;;;;;;;15.84;100.00;100483.84;5024597;28;20029;-52
2022/08/17 04:26:56;;;;;;;31.20;21.73;;;;;;;15.82;100.00;100477.91;5020717;28;20396;-51
2022/08/17 04:29:21;;;;;;;29.48;22.15;;;;;;;15.79;100.00;100481.84;5020311;28;20080;-55
2022/08/17 04:31:46;;;;;;;29.38;22.42;;;;;;;15.81;100.00;100473.63;5022636;28;20025;-54
2022/08/17 04:34:12;;;;;;;27.80;20.73;;;;;;;15.82;100.00;100478.72;5023165;28;20040;-54
2022/08/17 04:36:37;;;;;;;27.52;19.73;;;;;;;15.83;100.00;100483.03;5021576;28;20033;-54
2022/08/17 04:39:03;;;;;;;33.13;22.38;;;;;;;15.85;100.00;100478.28;5024125;28;20037;-51
2022/08/17 04:44:13;;;;;;;28.10;18.40;;;;;;;15.87;100.00;100481.53;5024218;28;20207;-52
2022/08/17 04:46:38;;;;;;;27.23;19.52;;;;;;;15.86;100.00;100469.22;5025016;28;20113;-55
2022/08/17 04:49:07;;;;;;;29.80;20.27;;;;;;;15.85;100.00;100467.59;5016529;28;20045;-55
2022/08/17 04:51:41;;;;;;;25.13;17.45;;;;;;;15.86;100.00;100469.22;5020784;28;20037;-52
2022/08/17 04:54:09;;;;;;;27.50;19.02;;;;;;;15.84;100.00;100465.16;5020434;28;20363;-51
2022/08/17 04:56:36;;;;;;;26.63;20.58;;;;;;;15.84;100.00;100465.16;5019372;28;20025;-53
2022/08/17 04:59:07;;;;;;;28.45;18.13;;;;;;;15.85;100.00;100472.94;5018456;28;20493;-51
2022/08/17 05:01:35;;;;;;;26.05;18.63;;;;;;;15.87;100.00;100473.50;5018995;28;20474;-53
2022/08/17 05:04:04;;;;;;;28.23;19.27;;;;;;;15.89;100.00;100468.75;5026408;28;20021;-52
2022/08/17 05:06:29;;;;;;;26.92;17.40;;;;;;;15.90;100.00;100470.41;5027089;28;20025;-53
2022/08/17 05:08:56;;;;;;;30.02;19.83;;;;;;;15.94;100.00;100469.97;5016352;28;20505;-51
2022/08/17 05:11:24;;;;;;;25.13;18.25;;;;;;;15.96;100.00;100467.88;5026185;28;20088;-53
2022/08/17 05:13:50;;;;;;;21.17;15.63;;;;;;;15.97;100.00;100464.97;5019210;28;20077;-53
2022/08/17 05:16:17;;;;;;;31.75;20.60;;;;;;;15.99;100.00;100472.75;5017234;28;20064;-54
2022/08/17 05:18:43;;;;;;;26.77;19.58;;;;;;;16.00;100.00;100469.84;5016232;28;20026;-54
2022/08/17 05:21:08;;;;;;;27.73;17.05;;;;;;;16.01;100.00;100471.50;5023377;28;20034;-53
2022/08/17 05:23:35;;;;;;;26.52;19.63;;;;;;;16.02;100.00;100467.78;5021302;28;20026;-54
2022/08/17 05:26:00;;;;;;;24.55;17.83;;;;;;;16.00;100.00;100469.03;5034470;28;20037;-51
2022/08/17 05:28:27;;;;;;;22.95;16.20;;;;;;;15.96;100.00;100462.53;5021008;28;20117;-53
2022/08/17 05:30:54;;;;;;;27.63;17.55;;;;;;;15.95;100.00;100475.06;5029363;28;20025;-55
2022/08/17 05:33:23;;;;;;;22.63;16.40;;;;;;;15.94;100.00;100469.97;5021955;28;20115;-54
2022/08/17 05:35:51;;;;;;;20.98;16.60;;;;;;;15.90;100.00;100469.56;5017979;28;20026;-54
2022/08/17 05:38:19;;;;;;;27.90;18.98;;;;;;;15.90;100.00;100465.06;5027824;28;20099;-54
2022/08/17 05:40:44;;;;;;;32.53;18.60;;;;;;;15.90;100.00;100464.22;5029924;28;20037;-55
2022/08/17 05:43:18;;;;;;;22.85;18.08;;;;;;;15.97;100.00;100477.53;5022188;28;20469;-52
2022/08/17 05:46:02;;;;;;;25.02;18.65;;;;;;;16.04;100.00;100483.59;5027976;28;20494;-54
2022/08/17 05:48:35;;;;;;;34.83;19.85;;;;;;;16.11;100.00;100487.00;5025605;28;20041;-52
2022/08/17 05:51:26;;;;;;;19.10;14.45;;;;;;;16.18;100.00;100500.28;5013624;28;20080;-49
2022/08/17 05:54:05;;;;;;;26.80;19.20;;;;;;;16.28;100.00;100508.56;5018675;28;20126;-55
2022/08/17 05:56:54;;;;;;;26.65;17.95;;;;;;;16.42;100.00;100520.72;5022966;28;20035;-51
2022/08/17 05:59:47;;;;;;;28.95;20.75;;;;;;;16.55;100.00;100519.72;5021697;28;20248;-55
2022/08/17 06:02:48;;;;;;;27.15;20.90;;;;;;;16.64;100.00;100509.47;5022802;28;20053;-55
2022/08/17 06:05:26;;;;;;;32.78;20.38;;;;;;;16.71;100.00;100508.31;5020102;28;20033;-54
2022/08/17 06:08:08;;;;;;;25.23;18.00;;;;;;;16.79;100.00;100516.03;5027647;28;20316;-55
2022/08/17 06:11:08;;;;;;;28.73;20.63;;;;;;;16.88;100.00;100523.72;5026969;28;20117;-53
2022/08/17 06:13:59;;;;;;;34.50;19.80;;;;;;;16.92;100.00;100514.19;5018482;28;20049;-51
2022/08/17 06:16:30;;;;;;;30.40;20.38;;;;;;;16.94;100.00;100522.81;5024277;28;20029;-50
2022/08/17 06:19:16;;;;;;;30.45;18.67;;;;;;;16.99;100.00;100515.72;5024584;28;20025;-54
2022/08/17 06:21:50;;;;;;;34.50;22.15;;;;;;;17.13;100.00;100515.47;5022562;28;20458;-48
2022/08/17 06:24:33;;;;;;;36.38;23.45;;;;;;;17.17;100.00;100517.47;5027759;28;20040;-53
2022/08/17 06:27:25;;;;;;;29.08;20.02;;;;;;;17.17;100.00;100517.47;5024361;28;20026;-50
2022/08/17 06:29:59;;;;;;;30.70;18.83;;;;;;;17.16;100.00;100515.81;5021492;28;20034;-51
2022/08/17 06:32:24;;;;;;;33.30;22.08;;;;;;;17.16;100.00;100515.81;5023157;28;20060;-49
2022/08/17 06:34:51;;;;;;;34.60;19.60;;;;;;;17.20;100.00;100513.50;5026560;28;20080;-52
2022/08/17 06:37:20;;;;;;;36.08;24.30;;;;;;;17.25;100.00;100518.97;5016862;28;20041;-55
2022/08/17 06:40:02;;;;;;;40.40;23.17;;;;;;;17.33;100.00;100517.81;5023379;28;20030;-53
2022/08/17 06:42:49;;;;;;;36.35;22.45;;;;;;;17.42;100.00;100508.34;5025827;28;20049;-54
2022/08/17 06:45:33;;;;;;;30.33;20.20;;;;;;;17.55;100.00;100502.72;5023209;28;20033;-52
2022/08/17 06:48:23;;;;;;;36.40;24.65;;;;;;;17.58;100.00;100496.91;5021322;28;20029;-51
2022/08/17 06:50:54;;;;;;;36.58;22.00;;;;;;;17.63;100.00;100497.00;5021509;28;20489;-54
2022/08/17 06:53:30;;;;;;;44.70;24.13;;;;;;;17.73;100.00;100499.06;5018226;28;20029;-54
2022/08/17 06:56:23;;;;;;;31.38;19.35;;;;;;;17.83;100.00;100507.34;5028111;28;20429;-55
2022/08/17 06:58:48;;;;;;;39.80;23.95;;;;;;;17.93;100.00;100512.09;5018447;28;20060;-57
2022/08/17 07:01:18;;;;;;;39.85;24.90;;;;;;;18.02;100.00;100512.53;5023967;28;20033;-54
2022/08/17 07:04:06;;;;;;;39.20;26.65;;;;;;;18.05;100.00;100504.81;5026462;28;20407;-52
2022/08/17 07:06:37;;;;;;;37.28;25.67;;;;;;;18.10;100.00;100514.84;5015473;28;20116;-55
2022/08/17 07:09:09;;;;;;;39.55;25.08;;;;;;;18.11;100.00;100515.66;5024121;28;20034;-53
2022/08/17 07:11:47;;;;;;;36.33;23.13;;;;;;;18.11;100.00;100508.41;5022973;28;20065;-55
2022/08/17 07:14:22;;;;;;;33.30;22.20;;;;;;;18.18;100.00;100500.22;5022629;28;20408;-52
2022/08/17 07:16:51;;;;;;;39.83;24.45;;;;;;;18.28;100.00;100508.47;5023371;28;20051;-53
2022/08/17 07:19:21;;;;;;;47.97;26.13;;;;;;;18.26;100.00;100505.19;5025956;28;20026;-54
2022/08/17 07:21:53;;;;;;;43.08;26.35;;;;;;;18.27;100.00;100514.88;5027225;28;20044;-52
2022/08/17 07:24:22;;;;;;;38.67;24.45;;;;;;;18.29;100.00;100512.75;5016448;28;20034;-50
2022/08/17 07:27:06;;;;;;;43.80;25.25;;;;;;;18.31;100.00;100508.78;5020740;28;20386;-50
2022/08/17 07:29:40;;;;;;;42.83;25.23;;;;;;;18.14;100.00;100509.78;5018926;28;20040;-55
2022/08/17 07:32:08;;;;;;;39.63;22.30;;;;;;;18.06;100.00;100521.72;5019837;28;20090;-50
2022/08/17 07:35:10;;;;;;;30.35;21.10;;;;;;;18.06;100.00;100521.72;5018125;28;20034;-50
2022/08/17 07:37:38;;;;;;;31.67;21.52;;;;;;;18.08;100.00;100530.34;5020813;28;20512;-49
2022/08/17 07:40:25;;;;;;;33.38;23.15;;;;;;;18.08;100.00;100523.13;5021699;28;20126;-50
2022/08/17 07:43:15;;;;;;;36.75;22.42;;;;;;;18.16;100.00;100531.84;5023518;28;20029;-50
2022/08/17 07:48:41;;;;;;;31.52;20.20;;;;;;;18.36;100.00;100534.91;5024315;28;20045;-52
2022/08/17 07:51:27;;;;;;;31.70;18.77;;;;;;;18.55;100.00;100540.06;5025219;28;20116;-53
2022/08/17 07:53:59;;;;;;;20.67;16.25;;;;;;;18.65;100.00;100537.53;5012668;28;20025;-49
2022/08/17 07:56:44;;;;;;;26.90;20.33;;;;;;;18.73;100.00;100529.06;5016922;28;20466;-49
2022/08/17 07:59:12;;;;;;;31.35;19.70;;;;;;;18.91;100.00;100536.91;5014791;28;20021;-53
2022/08/17 08:01:38;;;;;;;28.10;18.45;;;;;;;18.85;100.00;100542.47;5022838;28;20436;-55
2022/08/17 08:04:29;;;;;;;29.52;20.70;;;;;;;18.78;100.00;100547.19;5024179;28;20442;-54
2022/08/17 08:06:58;;;;;;;24.40;17.75;;;;;;;18.77;100.00;100543.69;5014251;28;20038;-51
2022/08/17 08:09:28;;;;;;;26.42;19.30;;;;;;;18.94;100.00;100541.78;5023211;28;20436;-49
2022/08/17 08:11:53;;;;;;;29.95;17.65;;;;;;;19.11;100.00;100530.25;5016060;28;20106;-52
2022/08/17 08:14:37;;;;;;;24.55;18.55;;;;;;;19.20;100.00;100526.06;5017760;28;20112;-50
2022/08/17 08:17:06;;;;;;;24.58;17.75;;;;;;;19.16;100.00;100522.25;5022240;28;20108;-52
2022/08/17 08:19:32;;;;;;;28.67;19.25;;;;;;;19.14;100.00;100517.13;5023850;28;20037;-51
2022/08/17 08:22:10;;;;;;;25.42;16.45;;;;;;;19.23;100.00;100519.38;5018403;28;20095;-49
2022/08/17 08:24:50;;;;;;;22.55;16.48;;;;;;;19.29;100.00;100511.16;5022122;28;20030;-51
2022/08/17 08:27:25;;;;;;;21.92;15.93;;;;;;;19.26;100.00;100505.44;5017532;28;20036;-52
2022/08/17 08:30:03;;;;;;;22.35;16.05;;;;;;;19.27;100.00;100507.88;5016219;28;20957;-50
2022/08/17 08:32:55;;;;;;;18.48;14.80;;;;;;;19.29;100.00;100505.78;5023998;28;20026;-51
2022/08/17 08:35:29;;;;;;;;;;;;;;;19.37;100.00;100509.91;5022931;28;20072;-56
2022/08/17 08:38:06;;;;;;;22.00;16.52;;;;;;;19.39;100.00;100497.84;5016312;28;20040;-49
2022/08/17 08:40:56;;;;;;;18.27;14.23;;;;;;;19.48;100.00;100508.16;5025474;28;20069;-55
2022/08/17 08:43:28;;;;;;;18.65;13.98;;;;;;;19.60;100.00;100504.28;5025612;28;20108;-54
2022/08/17 08:46:00;;;;;;;22.08;13.63;;;;;;;19.85;100.00;100502.19;5024608;28;20498;-55
2022/08/17 08:48:25;;;;;;;19.95;13.88;;;;;;;20.04;100.00;100495.41;5012013;28;20033;-57
2022/08/17 08:51:04;;;;;;;16.65;12.13;;;;;;;20.22;100.00;100491.53;5024534;28;20034;-57
2022/08/17 08:53:43;;;;;;;27.15;15.95;;;;;;;20.38;100.00;100484.41;5018229;28;20488;-56
2022/08/17 08:56:30;;;;;;;22.70;15.43;;;;;;;20.42;100.00;100493.59;5028737;28;20033;-55
2022/08/17 08:59:06;;;;;;;21.52;16.20;;;;;;;20.59;100.00;100491.63;5018858;28;20060;-55
2022/08/17 09:01:49;;;;;;;22.27;15.73;;;;;;;20.93;100.00;100494.03;5024938;28;20393;-54
2022/08/17 09:04:34;;;;;;;19.83;14.82;;;;;;;20.98;100.00;100491.34;5015580;28;20223;-54
2022/08/17 09:07:08;;;;;;;22.10;15.40;;;;;;;21.06;100.00;100495.44;5013919;28;20028;-52
2022/08/17 09:09:40;;;;;;;17.08;13.05;;;;;;;21.16;100.00;100495.50;5016004;28;20142;-52
2022/08/17 09:12:23;;;;;;;13.55;10.75;;;;;;;21.20;100.00;100501.22;5024699;28;20041;-55
2022/08/17 09:15:19;;;;;;;23.90;13.02;;;;;;;20.79;100.00;100496.38;5018365;28;20029;-52
2022/08/17 09:17:56;;;;;;;18.95;12.95;;;;;;;20.40;100.00;100504.63;5015255;28;20025;-53
2022/08/17 09:20:45;;;;;;;16.65;10.80;;;;;;;20.44;100.00;100504.94;5018334;28;20438;-55
2022/08/17 09:23:34;;;;;;;13.23;10.00;;;;;;;20.53;100.00;100514.19;5026816;28;20025;-53
2022/08/17 09:26:19;;;;;;;13.38;11.13;;;;;;;20.64;100.00;100509.72;5026468;28;20124;-55
2022/08/17 09:28:50;;;;;;;13.73;9.55;;;;;;;20.85;100.00;100506.09;5024936;28;20091;-54
2022/08/17 09:31:24;;;;;;;17.17;12.97;;;;;;;21.10;100.00;100502.75;5019105;28;20052;-55
2022/08/17 09:33:54;;;;;;;21.15;10.90;;;;;;;21.35;100.00;100495.91;5018962;28;20033;-52
2022/08/17 09:36:29;;;;;;;13.52;11.15;;;;;;;21.39;100.00;100488.94;5028641;28;20030;-52
2022/08/17 09:39:18;;;;;;;18.08;12.02;;;;;;;21.36;100.00;100494.81;5025168;28;20035;-54
2022/08/17 09:42:26;;;;;;;14.68;10.07;;;;;;;21.05;100.00;100505.44;5023767;28;20036;-54
2022/08/17 09:45:05;;;;;;;15.75;10.95;;;;;;;20.81;100.00;100498.81;5032210;28;20083;-53
2022/08/17 09:47:40;;;;;;;12.45;9.15;;;;;;;21.19;100.00;100495.00;5028077;28;20026;-54
2022/08/17 09:50:18;;;;;;;14.18;8.73;;;;;;;21.83;100.00;100480.44;5020496;28;20037;-54
2022/08/17 09:52:44;;;;;;;8.98;8.05;;;;;;;22.27;100.00;100477.31;5018618;28;20037;-52
2022/08/17 09:55:10;;;;;;;9.25;7.80;;;;;;;22.18;100.00;100473.53;5028726;28;20021;-54
2022/08/17 09:58:23;;;;;;;12.35;7.18;;;;;;;21.93;100.00;100479.69;5025235;28;20064;-53
2022/08/17 10:00:59;;;;;;;7.35;6.57;;;;;;;22.44;100.00;100479.78;5046188;28;20025;-53
2022/08/17 10:03:56;;;;;;;10.40;7.32;;;;;;;22.77;100.00;100464.91;5045307;28;20025;-57
2022/08/17 10:06:29;;;;;;;10.43;6.82;;;;;;;23.04;100.00;100469.19;5024011;28;20030;-51
2022/08/17 10:09:08;;;;;;;6.85;6.00;;;;;;;23.12;100.00;100465.94;5018012;28;20075;-56
2022/08/17 10:15:21;;;;;;;7.85;6.38;;;;;;;23.29;100.00;100465.63;5015340;28;20438;-49
2022/08/17 10:18:17;;;;;;;10.68;6.13;;;;;;;23.08;100.00;100472.97;5005116;28;20147;-51
2022/08/17 10:26:37;;;;;;;8.05;5.95;;;;;;;24.08;100.00;100466.56;5020043;28;20350;-55
2022/08/17 10:29:10;;;;;;;5.77;4.70;;;;;;;24.37;100.00;100463.94;5028696;28;20031;-56
2022/08/17 10:32:03;;;;;;;6.22;4.05;;;;;;;24.61;100.00;100463.22;5022391;28;20428;-56
2022/08/17 10:34:46;;;;;;;7.80;4.72;;;;;;;24.63;100.00;100468.34;5026601;28;20142;-52
2022/08/17 10:37:32;;;;;;;5.93;4.57;;;;;;;24.11;100.00;100460.59;5021285;28;20048;-51
2022/08/17 10:40:17;;;;;;;6.38;5.07;;;;;;;23.44;100.00;100467.44;5016536;28;20121;-51
2022/08/17 10:42:58;;;;;;;6.05;4.82;;;;;;;23.67;100.00;100461.38;5015109;28;20022;-56
2022/08/17 10:45:32;;;;;;;13.43;3.50;;;;;;;23.70;100.00;100462.72;5020590;28;20044;-50
2022/08/17 10:48:19;;;;;;;4.43;3.72;;;;;;;23.73;100.00;100465.72;5018529;28;20033;-50
2022/08/17 10:50:54;;;;;;;5.22;4.00;;;;;;;24.07;100.00;100464.97;5020170;28;20430;-52
2022/08/17 10:53:47;;;;;;;5.95;5.32;;;;;;;23.62;100.00;100457.88;5021835;28;20115;-48
2022/08/17 10:56:12;;;;;;;5.05;3.80;;;;;;;23.44;100.00;100462.00;5020340;28;20446;-51
2022/08/17 10:58:52;;;;;;;3.88;3.58;;;;;;;23.45;100.00;100460.94;5027010;28;20034;-51
2022/08/17 11:01:38;;;;;;;7.40;3.50;;;;;;;23.18;100.00;100458.59;5020751;28;20508;-52
2022/08/17 11:04:27;;;;;;;5.28;3.08;;;;;;;23.05;100.00;100460.00;5021859;28;20033;-51
2022/08/17 11:07:18;;;;;;;7.45;2.95;;;;;;;23.11;100.00;100456.22;5021276;28;20548;-50
2022/08/17 11:10:05;;;;;;;4.80;3.67;;;;;;;23.51;100.00;100452.50;5024807;28;20045;-51
2022/08/17 11:12:47;;;;;;;3.72;3.42;;;;;;;23.32;100.00;100446.13;5020891;28;20088;-53
2022/08/17 11:15:34;;;;;;;3.90;3.28;;;;;;;23.04;100.00;100463.78;5026507;28;20057;-49
2022/08/17 11:18:27;;;;;;;6.53;2.72;;;;;;;22.78;100.00;100450.28;5021651;28;20057;-49
2022/08/17 11:21:01;;;;;;;8.93;3.72;;;;;;;23.05;100.00;100460.00;5019443;28;20040;-52
2022/08/17 11:23:57;;;;;;;4.75;2.85;;;;;;;22.82;100.00;100456.78;5017704;28;20048;-52
2022/08/17 11:26:29;;;;;;;13.07;3.83;;;;;;;22.85;100.00;100456.22;5016798;28;20037;-52
2022/08/17 11:29:00;;;;;;;5.55;3.15;;;;;;;23.13;100.00;100450.50;5025413;28;20514;-54
2022/08/17 11:31:32;;;;;;;5.45;2.67;;;;;;;23.65;100.00;100446.53;5026261;28;20052;-50
2022/08/17 11:34:00;;;;;;;3.30;2.85;;;;;;;24.21;100.00;100427.19;5015786;28;20097;-51
2022/08/17 11:36:28;;;;;;;4.30;2.33;;;;;;;24.05;100.00;100434.63;5023401;28;20436;-48
2022/08/17 11:39:03;;;;;;;3.97;2.75;;;;;;;23.60;100.00;100436.53;5023074;28;20032;-48
2022/08/17 11:41:53;;;;;;;3.88;2.78;;;;;;;23.13;100.00;100437.81;5023768;28;20033;-49
2022/08/17 11:44:38;;;;;;;3.50;1.93;;;;;;;23.34;100.00;100440.41;5017507;28;20408;-49
2022/08/17 11:52:50;;;;;;;3.60;2.20;;;;;;;23.45;100.00;100439.31;5019468;28;20090;-51
2022/08/17 11:55:30;;;;;;;13.13;3.40;;;;;;;23.07;100.00;100441.59;5023155;28;20033;-50
2022/08/17 11:58:00;;;;;;;6.30;2.50;;;;;;;23.12;100.00;100438.88;5021549;28;20394;-51
2022/08/17 12:00:44;;;;;;;6.28;2.45;;;;;;;22.84;100.00;100449.19;5024528;28;20034;-53
2022/08/17 12:03:31;;;;;;;7.75;1.92;;;;;;;23.11;100.00;100445.38;5021883;28;20040;-49
2022/08/17 12:06:33;;;;;;;3.20;2.65;;;;;;;23.55;100.00;100452.78;5021189;28;20049;-49
2022/08/17 12:09:11;;;;;;;4.05;2.53;;;;;;;23.98;100.00;100442.25;5020756;28;20038;-54